WIBB

Details ICAO WIBB (PKU)
Name Pekanbaru Sultan Syarif Kasim II
Region Indonesia
Timezone Asia/Jakarta (UTC+7.0)
Plans Departing 57
Arriving 53
Stats Elevation 102 ft / 31 m (AMSL)
Location 0.460784° 101.444537°
Runways 1
Magnetic Variation 0.036° E
Sunrise 2017-12-13 23:07:20 UTC / 2017-12-14 06:07:20 Local
Sunset 2017-12-14 11:13:00 UTC / 2017-12-14 18:13:00 Local
Advertisement - Login to hide

Runways

ID Width Length Bearing (true) Bearing (mag) Surface Threshold Offset Overrun Length
18 98 ft / 30 m 7,373 ft / 2,247 m 181.66° 181.62° Asphalt 0 ft / 0 m 200 ft / 61 m
36 98 ft / 30 m 7,373 ft / 2,247 m 1.66° 1.62° Asphalt 0 ft / 0 m 200 ft / 61 m

Approach Navaids

Runway Type Ident Frequency Range Bearing (true) Bearing (mag) Slope Elevation
36 Localiser IPKU 111.10 MHz 18 nm / 33 km 1.44° 1.40° - 102 ft / 31 m (AMSL)
36 Glidescope IPKU 111.10 MHz 10 nm / 19 km 1.67° 1.63° 3.00° 87 ft / 27 m (AMSL)
36 DME IPKU 111.10 MHz 18 nm / 33 km - - - 102 ft / 31 m (AMSL)

Map

Weather


0- 5 10 15 20 25 30 35+ Temperature / ° C

Clouds and Precipitation
Forecast for 2017-12-13 18:00 UTC. Updated 23 minutes ago

Ground ~20,000 ft ~40,000 ft Winds

METAR

WIBB 131700Z 00000KT 8000 FEW012 26/24 Q1010

TAF

Not found

Frequencies

Tower 118.10 MHz SYARIF TWR
Approach 120.80 MHz PEKANBARU APP
Warning: Do not use this data for real-world aviation or navigation. No guarantee of current accuracy is given.